sensor_id;sensor_type;location;lat;lon;timestamp;P1;durP1;ratioP1;P2;durP2;ratioP2
41711;SDS011;27399;51.516;13.670;2022-11-14T00:02:16;49.50;;;21.88;;
41711;SDS011;27399;51.516;13.670;2022-11-14T00:04:45;54.35;;;22.05;;
41711;SDS011;27399;51.516;13.670;2022-11-14T00:07:11;54.85;;;21.25;;
41711;SDS011;27399;51.516;13.670;2022-11-14T00:09:37;54.83;;;22.27;;
41711;SDS011;27399;51.516;13.670;2022-11-14T00:12:04;55.67;;;22.55;;
41711;SDS011;27399;51.516;13.670;2022-11-14T00:14:30;50.92;;;20.83;;
41711;SDS011;27399;51.516;13.670;2022-11-14T00:16:56;64.93;;;22.88;;
41711;SDS011;27399;51.516;13.670;2022-11-14T00:19:22;58.45;;;22.48;;
41711;SDS011;27399;51.516;13.670;2022-11-14T00:21:47;56.78;;;22.85;;
41711;SDS011;27399;51.516;13.670;2022-11-14T00:24:13;51.83;;;20.90;;
41711;SDS011;27399;51.516;13.670;2022-11-14T00:26:38;44.33;;;19.67;;
41711;SDS011;27399;51.516;13.670;2022-11-14T00:29:04;51.45;;;20.35;;
41711;SDS011;27399;51.516;13.670;2022-11-14T00:31:30;47.25;;;19.67;;
41711;SDS011;27399;51.516;13.670;2022-11-14T00:33:55;49.38;;;19.35;;
41711;SDS011;27399;51.516;13.670;2022-11-14T00:36:21;53.33;;;20.73;;
41711;SDS011;27399;51.516;13.670;2022-11-14T00:38:47;47.97;;;20.50;;
41711;SDS011;27399;51.516;13.670;2022-11-14T00:41:16;41.92;;;17.83;;
41711;SDS011;27399;51.516;13.670;2022-11-14T00:43:41;45.25;;;18.05;;
41711;SDS011;27399;51.516;13.670;2022-11-14T00:46:07;55.45;;;20.35;;
41711;SDS011;27399;51.516;13.670;2022-11-14T00:48:32;45.30;;;18.20;;
41711;SDS011;27399;51.516;13.670;2022-11-14T00:50:58;42.97;;;18.50;;
41711;SDS011;27399;51.516;13.670;2022-11-14T00:53:24;47.88;;;18.38;;
41711;SDS011;27399;51.516;13.670;2022-11-14T00:55:49;43.90;;;18.05;;
41711;SDS011;27399;51.516;13.670;2022-11-14T00:58:15;41.55;;;16.20;;
41711;SDS011;27399;51.516;13.670;2022-11-14T01:00:40;45.63;;;16.88;;
41711;SDS011;27399;51.516;13.670;2022-11-14T01:03:06;40.03;;;17.73;;
41711;SDS011;27399;51.516;13.670;2022-11-14T01:05:31;45.50;;;16.48;;
41711;SDS011;27399;51.516;13.670;2022-11-14T01:07:57;42.85;;;16.92;;
41711;SDS011;27399;51.516;13.670;2022-11-14T01:10:23;41.95;;;16.60;;
41711;SDS011;27399;51.516;13.670;2022-11-14T01:12:48;46.55;;;17.67;;
41711;SDS011;27399;51.516;13.670;2022-11-14T01:15:14;44.53;;;17.05;;
41711;SDS011;27399;51.516;13.670;2022-11-14T01:17:40;33.95;;;14.90;;
41711;SDS011;27399;51.516;13.670;2022-11-14T01:20:05;43.20;;;17.10;;
41711;SDS011;27399;51.516;13.670;2022-11-14T01:22:32;37.00;;;16.80;;
41711;SDS011;27399;51.516;13.670;2022-11-14T01:24:57;36.40;;;15.90;;
41711;SDS011;27399;51.516;13.670;2022-11-14T01:27:23;30.42;;;14.50;;
41711;SDS011;27399;51.516;13.670;2022-11-14T01:29:49;39.90;;;16.25;;
41711;SDS011;27399;51.516;13.670;2022-11-14T01:32:15;42.97;;;16.63;;
41711;SDS011;27399;51.516;13.670;2022-11-14T01:34:41;41.42;;;16.73;;
41711;SDS011;27399;51.516;13.670;2022-11-14T01:37:07;33.30;;;14.40;;
41711;SDS011;27399;51.516;13.670;2022-11-14T01:39:33;36.45;;;14.52;;
41711;SDS011;27399;51.516;13.670;2022-11-14T01:41:58;34.88;;;14.25;;
41711;SDS011;27399;51.516;13.670;2022-11-14T01:47:17;30.50;;;13.75;;
41711;SDS011;27399;51.516;13.670;2022-11-14T01:49:47;39.47;;;15.27;;
41711;SDS011;27399;51.516;13.670;2022-11-14T01:52:21;33.05;;;13.73;;
41711;SDS011;27399;51.516;13.670;2022-11-14T01:54:56;30.08;;;11.35;;
41711;SDS011;27399;51.516;13.670;2022-11-14T01:57:25;27.30;;;12.50;;
41711;SDS011;27399;51.516;13.670;2022-11-14T01:59:56;33.33;;;14.00;;
41711;SDS011;27399;51.516;13.670;2022-11-14T02:02:25;34.03;;;14.35;;
41711;SDS011;27399;51.516;13.670;2022-11-14T02:05:02;32.33;;;14.07;;
41711;SDS011;27399;51.516;13.670;2022-11-14T02:07:32;33.08;;;13.02;;
41711;SDS011;27399;51.516;13.670;2022-11-14T02:10:00;37.03;;;15.63;;
41711;SDS011;27399;51.516;13.670;2022-11-14T02:12:30;35.75;;;14.70;;
41711;SDS011;27399;51.516;13.670;2022-11-14T02:14:56;38.85;;;16.48;;
41711;SDS011;27399;51.516;13.670;2022-11-14T02:17:24;33.88;;;14.90;;
41711;SDS011;27399;51.516;13.670;2022-11-14T02:20:36;38.63;;;15.73;;
41711;SDS011;27399;51.516;13.670;2022-11-14T02:22:40;32.47;;;13.93;;
41711;SDS011;27399;51.516;13.670;2022-11-14T02:25:07;32.95;;;13.65;;
41711;SDS011;27399;51.516;13.670;2022-11-14T02:27:34;33.53;;;13.73;;
41711;SDS011;27399;51.516;13.670;2022-11-14T02:30:05;36.97;;;14.38;;
41711;SDS011;27399;51.516;13.670;2022-11-14T02:32:34;31.92;;;12.68;;
41711;SDS011;27399;51.516;13.670;2022-11-14T02:34:59;31.05;;;14.90;;
41711;SDS011;27399;51.516;13.670;2022-11-14T02:37:25;37.70;;;15.27;;
41711;SDS011;27399;51.516;13.670;2022-11-14T02:39:50;33.03;;;14.70;;
41711;SDS011;27399;51.516;13.670;2022-11-14T02:42:16;39.05;;;16.15;;
41711;SDS011;27399;51.516;13.670;2022-11-14T02:44:42;32.67;;;13.73;;
41711;SDS011;27399;51.516;13.670;2022-11-14T02:47:07;31.23;;;12.95;;
41711;SDS011;27399;51.516;13.670;2022-11-14T02:49:33;35.05;;;14.50;;
41711;SDS011;27399;51.516;13.670;2022-11-14T02:51:58;33.10;;;14.00;;
41711;SDS011;27399;51.516;13.670;2022-11-14T02:54:24;29.25;;;12.20;;
41711;SDS011;27399;51.516;13.670;2022-11-14T02:56:50;36.10;;;13.65;;
41711;SDS011;27399;51.516;13.670;2022-11-14T02:59:15;30.20;;;12.05;;
41711;SDS011;27399;51.516;13.670;2022-11-14T03:01:41;30.65;;;12.63;;
41711;SDS011;27399;51.516;13.670;2022-11-14T03:04:07;34.03;;;13.25;;
41711;SDS011;27399;51.516;13.670;2022-11-14T03:06:32;29.27;;;11.77;;
41711;SDS011;27399;51.516;13.670;2022-11-14T03:08:58;27.52;;;10.95;;
41711;SDS011;27399;51.516;13.670;2022-11-14T03:11:24;31.02;;;11.85;;
41711;SDS011;27399;51.516;13.670;2022-11-14T03:13:49;28.65;;;11.75;;
41711;SDS011;27399;51.516;13.670;2022-11-14T03:16:15;35.78;;;12.15;;
41711;SDS011;27399;51.516;13.670;2022-11-14T03:18:41;27.75;;;11.48;;
41711;SDS011;27399;51.516;13.670;2022-11-14T03:21:07;26.98;;;12.00;;
41711;SDS011;27399;51.516;13.670;2022-11-14T03:23:35;34.15;;;13.45;;
41711;SDS011;27399;51.516;13.670;2022-11-14T03:26:02;35.35;;;13.63;;
41711;SDS011;27399;51.516;13.670;2022-11-14T03:28:29;31.52;;;14.23;;
41711;SDS011;27399;51.516;13.670;2022-11-14T03:30:54;30.77;;;14.82;;
41711;SDS011;27399;51.516;13.670;2022-11-14T03:33:20;31.88;;;14.07;;
41711;SDS011;27399;51.516;13.670;2022-11-14T03:35:49;33.00;;;14.15;;
41711;SDS011;27399;51.516;13.670;2022-11-14T03:38:15;37.80;;;16.23;;
41711;SDS011;27399;51.516;13.670;2022-11-14T03:40:42;32.67;;;14.25;;
41711;SDS011;27399;51.516;13.670;2022-11-14T03:43:08;32.47;;;13.80;;
41711;SDS011;27399;51.516;13.670;2022-11-14T03:45:35;29.10;;;12.55;;
41711;SDS011;27399;51.516;13.670;2022-11-14T03:48:01;29.92;;;14.27;;
41711;SDS011;27399;51.516;13.670;2022-11-14T03:50:27;36.42;;;13.93;;
41711;SDS011;27399;51.516;13.670;2022-11-14T03:52:53;31.02;;;13.50;;
41711;SDS011;27399;51.516;13.670;2022-11-14T03:55:18;32.42;;;13.02;;
41711;SDS011;27399;51.516;13.670;2022-11-14T03:57:44;30.67;;;13.43;;
41711;SDS011;27399;51.516;13.670;2022-11-14T04:00:10;33.42;;;15.40;;
41711;SDS011;27399;51.516;13.670;2022-11-14T04:02:36;27.83;;;12.60;;
41711;SDS011;27399;51.516;13.670;2022-11-14T04:05:01;30.67;;;12.75;;
41711;SDS011;27399;51.516;13.670;2022-11-14T04:07:27;31.13;;;13.20;;
41711;SDS011;27399;51.516;13.670;2022-11-14T04:09:53;29.63;;;13.38;;
41711;SDS011;27399;51.516;13.670;2022-11-14T04:12:18;26.60;;;12.45;;
41711;SDS011;27399;51.516;13.670;2022-11-14T04:14:44;28.10;;;11.85;;
41711;SDS011;27399;51.516;13.670;2022-11-14T04:17:10;29.20;;;13.13;;
41711;SDS011;27399;51.516;13.670;2022-11-14T04:19:35;31.88;;;14.23;;
41711;SDS011;27399;51.516;13.670;2022-11-14T04:22:01;28.08;;;12.13;;
41711;SDS011;27399;51.516;13.670;2022-11-14T04:24:27;29.65;;;13.02;;
41711;SDS011;27399;51.516;13.670;2022-11-14T04:26:53;30.30;;;12.25;;
41711;SDS011;27399;51.516;13.670;2022-11-14T04:29:18;28.77;;;12.63;;
41711;SDS011;27399;51.516;13.670;2022-11-14T04:31:44;29.15;;;11.55;;
41711;SDS011;27399;51.516;13.670;2022-11-14T04:34:10;24.38;;;11.15;;
41711;SDS011;27399;51.516;13.670;2022-11-14T04:36:35;27.85;;;11.95;;
41711;SDS011;27399;51.516;13.670;2022-11-14T04:39:01;24.83;;;11.60;;
41711;SDS011;27399;51.516;13.670;2022-11-14T04:41:26;25.52;;;11.77;;
41711;SDS011;27399;51.516;13.670;2022-11-14T04:43:52;24.88;;;12.15;;
41711;SDS011;27399;51.516;13.670;2022-11-14T04:46:18;28.13;;;10.57;;
41711;SDS011;27399;51.516;13.670;2022-11-14T04:48:43;28.95;;;12.23;;
41711;SDS011;27399;51.516;13.670;2022-11-14T04:51:09;24.85;;;12.50;;
41711;SDS011;27399;51.516;13.670;2022-11-14T04:53:34;25.15;;;11.23;;
41711;SDS011;27399;51.516;13.670;2022-11-14T04:56:00;30.40;;;11.77;;
41711;SDS011;27399;51.516;13.670;2022-11-14T04:58:26;26.05;;;10.73;;
41711;SDS011;27399;51.516;13.670;2022-11-14T05:00:51;24.95;;;10.70;;
41711;SDS011;27399;51.516;13.670;2022-11-14T05:03:17;24.70;;;11.25;;
41711;SDS011;27399;51.516;13.670;2022-11-14T05:05:42;26.42;;;11.57;;
41711;SDS011;27399;51.516;13.670;2022-11-14T05:08:08;21.80;;;11.27;;
41711;SDS011;27399;51.516;13.670;2022-11-14T05:10:34;30.25;;;12.88;;
41711;SDS011;27399;51.516;13.670;2022-11-14T05:12:59;24.77;;;12.15;;
41711;SDS011;27399;51.516;13.670;2022-11-14T05:15:26;23.27;;;10.65;;
41711;SDS011;27399;51.516;13.670;2022-11-14T05:17:51;19.13;;;10.75;;
41711;SDS011;27399;51.516;13.670;2022-11-14T05:20:17;23.10;;;10.55;;
41711;SDS011;27399;51.516;13.670;2022-11-14T05:22:42;21.95;;;10.10;;
41711;SDS011;27399;51.516;13.670;2022-11-14T05:25:08;25.40;;;10.32;;
41711;SDS011;27399;51.516;13.670;2022-11-14T05:27:34;26.92;;;10.82;;
41711;SDS011;27399;51.516;13.670;2022-11-14T05:30:00;28.25;;;11.85;;
41711;SDS011;27399;51.516;13.670;2022-11-14T05:32:25;27.23;;;11.30;;
41711;SDS011;27399;51.516;13.670;2022-11-14T05:34:51;24.58;;;10.43;;
41711;SDS011;27399;51.516;13.670;2022-11-14T05:37:17;25.25;;;11.65;;
41711;SDS011;27399;51.516;13.670;2022-11-14T05:39:42;26.95;;;11.60;;
41711;SDS011;27399;51.516;13.670;2022-11-14T05:42:08;29.65;;;10.88;;
41711;SDS011;27399;51.516;13.670;2022-11-14T05:44:33;23.77;;;11.93;;
41711;SDS011;27399;51.516;13.670;2022-11-14T05:46:59;24.60;;;10.98;;
41711;SDS011;27399;51.516;13.670;2022-11-14T05:49:24;23.92;;;11.27;;
41711;SDS011;27399;51.516;13.670;2022-11-14T05:51:50;27.17;;;10.48;;
41711;SDS011;27399;51.516;13.670;2022-11-14T05:54:16;25.45;;;10.82;;
41711;SDS011;27399;51.516;13.670;2022-11-14T05:56:41;28.75;;;12.05;;
41711;SDS011;27399;51.516;13.670;2022-11-14T05:59:07;21.77;;;10.98;;
41711;SDS011;27399;51.516;13.670;2022-11-14T06:01:32;23.60;;;11.07;;
41711;SDS011;27399;51.516;13.670;2022-11-14T06:03:58;22.70;;;10.57;;
41711;SDS011;27399;51.516;13.670;2022-11-14T06:06:24;27.65;;;10.40;;
41711;SDS011;27399;51.516;13.670;2022-11-14T06:08:49;22.58;;;11.05;;
41711;SDS011;27399;51.516;13.670;2022-11-14T06:11:16;22.70;;;11.13;;
41711;SDS011;27399;51.516;13.670;2022-11-14T06:13:43;28.38;;;11.70;;
41711;SDS011;27399;51.516;13.670;2022-11-14T06:16:11;21.05;;;9.88;;
41711;SDS011;27399;51.516;13.670;2022-11-14T06:18:38;22.48;;;9.23;;
41711;SDS011;27399;51.516;13.670;2022-11-14T06:21:05;22.02;;;11.10;;
41711;SDS011;27399;51.516;13.670;2022-11-14T06:23:41;20.05;;;9.35;;
41711;SDS011;27399;51.516;13.670;2022-11-14T06:26:23;23.23;;;10.68;;
41711;SDS011;27399;51.516;13.670;2022-11-14T06:28:51;21.67;;;10.55;;
41711;SDS011;27399;51.516;13.670;2022-11-14T06:31:18;28.35;;;10.13;;
41711;SDS011;27399;51.516;13.670;2022-11-14T06:33:45;23.05;;;9.70;;
41711;SDS011;27399;51.516;13.670;2022-11-14T06:36:10;23.17;;;9.80;;
41711;SDS011;27399;51.516;13.670;2022-11-14T06:38:37;23.65;;;11.40;;
41711;SDS011;27399;51.516;13.670;2022-11-14T06:41:05;22.00;;;10.65;;
41711;SDS011;27399;51.516;13.670;2022-11-14T06:43:35;28.70;;;10.70;;
41711;SDS011;27399;51.516;13.670;2022-11-14T06:46:02;22.48;;;10.88;;
41711;SDS011;27399;51.516;13.670;2022-11-14T06:48:28;19.17;;;8.98;;
41711;SDS011;27399;51.516;13.670;2022-11-14T06:50:55;20.60;;;10.20;;
41711;SDS011;27399;51.516;13.670;2022-11-14T06:53:22;23.98;;;9.77;;
41711;SDS011;27399;51.516;13.670;2022-11-14T06:55:55;27.02;;;10.63;;
41711;SDS011;27399;51.516;13.670;2022-11-14T06:58:29;25.55;;;11.18;;
41711;SDS011;27399;51.516;13.670;2022-11-14T07:01:19;32.63;;;10.13;;
41711;SDS011;27399;51.516;13.670;2022-11-14T07:03:46;27.42;;;10.20;;
41711;SDS011;27399;51.516;13.670;2022-11-14T07:06:16;22.30;;;9.60;;
41711;SDS011;27399;51.516;13.670;2022-11-14T07:08:44;18.40;;;8.90;;
41711;SDS011;27399;51.516;13.670;2022-11-14T07:11:10;22.40;;;8.82;;
41711;SDS011;27399;51.516;13.670;2022-11-14T07:13:50;21.25;;;9.70;;
41711;SDS011;27399;51.516;13.670;2022-11-14T07:16:17;21.00;;;9.15;;
41711;SDS011;27399;51.516;13.670;2022-11-14T07:18:43;17.05;;;8.60;;
41711;SDS011;27399;51.516;13.670;2022-11-14T07:21:09;19.33;;;9.07;;
41711;SDS011;27399;51.516;13.670;2022-11-14T07:23:37;17.75;;;9.20;;
41711;SDS011;27399;51.516;13.670;2022-11-14T07:26:04;31.58;;;12.05;;
41711;SDS011;27399;51.516;13.670;2022-11-14T07:28:35;16.67;;;8.98;;
41711;SDS011;27399;51.516;13.670;2022-11-14T07:31:04;21.55;;;9.65;;
41711;SDS011;27399;51.516;13.670;2022-11-14T07:33:31;20.90;;;9.68;;
41711;SDS011;27399;51.516;13.670;2022-11-14T07:35:57;18.70;;;9.35;;
41711;SDS011;27399;51.516;13.670;2022-11-14T07:38:22;26.02;;;10.43;;
41711;SDS011;27399;51.516;13.670;2022-11-14T07:40:54;20.52;;;10.40;;
41711;SDS011;27399;51.516;13.670;2022-11-14T07:43:20;22.17;;;10.48;;
41711;SDS011;27399;51.516;13.670;2022-11-14T07:45:46;19.45;;;9.48;;
41711;SDS011;27399;51.516;13.670;2022-11-14T07:48:12;22.42;;;10.85;;
41711;SDS011;27399;51.516;13.670;2022-11-14T07:50:37;23.67;;;11.10;;
41711;SDS011;27399;51.516;13.670;2022-11-14T07:53:03;16.77;;;9.25;;
41711;SDS011;27399;51.516;13.670;2022-11-14T07:55:28;17.08;;;8.77;;
41711;SDS011;27399;51.516;13.670;2022-11-14T07:57:54;20.88;;;9.52;;
41711;SDS011;27399;51.516;13.670;2022-11-14T08:00:23;21.17;;;10.07;;
41711;SDS011;27399;51.516;13.670;2022-11-14T08:02:48;23.48;;;11.23;;
41711;SDS011;27399;51.516;13.670;2022-11-14T08:05:14;22.83;;;10.55;;
41711;SDS011;27399;51.516;13.670;2022-11-14T08:07:40;23.60;;;10.98;;
41711;SDS011;27399;51.516;13.670;2022-11-14T08:10:06;19.23;;;9.65;;
41711;SDS011;27399;51.516;13.670;2022-11-14T08:12:32;20.20;;;10.45;;
41711;SDS011;27399;51.516;13.670;2022-11-14T08:14:57;25.00;;;10.30;;
41711;SDS011;27399;51.516;13.670;2022-11-14T08:17:23;22.10;;;10.88;;
41711;SDS011;27399;51.516;13.670;2022-11-14T08:19:48;19.88;;;10.95;;
41711;SDS011;27399;51.516;13.670;2022-11-14T08:22:14;23.42;;;11.48;;
41711;SDS011;27399;51.516;13.670;2022-11-14T08:24:40;22.20;;;11.02;;
41711;SDS011;27399;51.516;13.670;2022-11-14T08:27:05;22.08;;;11.35;;
41711;SDS011;27399;51.516;13.670;2022-11-14T08:29:31;23.35;;;11.75;;
41711;SDS011;27399;51.516;13.670;2022-11-14T08:31:56;21.25;;;11.52;;
41711;SDS011;27399;51.516;13.670;2022-11-14T08:34:23;21.13;;;11.95;;
41711;SDS011;27399;51.516;13.670;2022-11-14T08:36:49;21.42;;;11.30;;
41711;SDS011;27399;51.516;13.670;2022-11-14T08:39:15;20.25;;;10.63;;
41711;SDS011;27399;51.516;13.670;2022-11-14T08:41:40;21.50;;;11.52;;
41711;SDS011;27399;51.516;13.670;2022-11-14T08:44:06;24.27;;;12.40;;
41711;SDS011;27399;51.516;13.670;2022-11-14T08:46:32;21.02;;;10.70;;
41711;SDS011;27399;51.516;13.670;2022-11-14T08:48:57;19.23;;;10.95;;
41711;SDS011;27399;51.516;13.670;2022-11-14T08:51:23;20.95;;;10.85;;
41711;SDS011;27399;51.516;13.670;2022-11-14T08:53:49;21.73;;;10.88;;
41711;SDS011;27399;51.516;13.670;2022-11-14T08:56:16;20.80;;;10.13;;
41711;SDS011;27399;51.516;13.670;2022-11-14T08:58:42;19.90;;;9.93;;
41711;SDS011;27399;51.516;13.670;2022-11-14T09:01:08;22.52;;;11.00;;
41711;SDS011;27399;51.516;13.670;2022-11-14T09:03:34;20.30;;;10.63;;
41711;SDS011;27399;51.516;13.670;2022-11-14T09:05:59;27.02;;;10.57;;
41711;SDS011;27399;51.516;13.670;2022-11-14T09:08:27;24.63;;;11.65;;
41711;SDS011;27399;51.516;13.670;2022-11-14T09:10:52;24.55;;;11.25;;
41711;SDS011;27399;51.516;13.670;2022-11-14T09:13:18;25.85;;;11.73;;
41711;SDS011;27399;51.516;13.670;2022-11-14T09:15:44;21.77;;;11.05;;
41711;SDS011;27399;51.516;13.670;2022-11-14T09:18:10;22.17;;;9.98;;
41711;SDS011;27399;51.516;13.670;2022-11-14T09:20:36;23.20;;;11.15;;
41711;SDS011;27399;51.516;13.670;2022-11-14T09:23:02;18.60;;;10.40;;
41711;SDS011;27399;51.516;13.670;2022-11-14T09:25:29;23.67;;;10.98;;
41711;SDS011;27399;51.516;13.670;2022-11-14T09:27:54;18.60;;;10.07;;
41711;SDS011;27399;51.516;13.670;2022-11-14T09:30:21;19.45;;;10.13;;
41711;SDS011;27399;51.516;13.670;2022-11-14T09:32:47;18.92;;;10.43;;
41711;SDS011;27399;51.516;13.670;2022-11-14T09:35:13;23.55;;;12.18;;
41711;SDS011;27399;51.516;13.670;2022-11-14T09:37:39;21.85;;;10.60;;
41711;SDS011;27399;51.516;13.670;2022-11-14T09:40:04;19.13;;;10.77;;
41711;SDS011;27399;51.516;13.670;2022-11-14T09:45:15;18.35;;;10.05;;
41711;SDS011;27399;51.516;13.670;2022-11-14T09:47:58;22.88;;;11.07;;
41711;SDS011;27399;51.516;13.670;2022-11-14T09:50:37;19.33;;;10.73;;
41711;SDS011;27399;51.516;13.670;2022-11-14T09:56:04;21.25;;;10.60;;
41711;SDS011;27399;51.516;13.670;2022-11-14T09:58:32;17.73;;;9.65;;
41711;SDS011;27399;51.516;13.670;2022-11-14T10:09:58;17.50;;;9.98;;
41711;SDS011;27399;51.516;13.670;2022-11-14T10:13:35;14.70;;;8.65;;
41711;SDS011;27399;51.516;13.670;2022-11-14T10:22:24;17.60;;;9.70;;
41711;SDS011;27399;51.516;13.670;2022-11-14T10:30:21;17.55;;;9.48;;
41711;SDS011;27399;51.516;13.670;2022-11-14T10:40:44;16.90;;;10.15;;
41711;SDS011;27399;51.516;13.670;2022-11-14T10:43:17;15.97;;;9.57;;
41711;SDS011;27399;51.516;13.670;2022-11-14T10:45:56;17.50;;;9.63;;
41711;SDS011;27399;51.516;13.670;2022-11-14T10:48:30;18.83;;;9.98;;
41711;SDS011;27399;51.516;13.670;2022-11-14T10:51:05;17.70;;;9.55;;
41711;SDS011;27399;51.516;13.670;2022-11-14T10:53:49;17.48;;;10.48;;
41711;SDS011;27399;51.516;13.670;2022-11-14T10:56:25;17.58;;;9.88;;
41711;SDS011;27399;51.516;13.670;2022-11-14T10:58:50;17.42;;;9.50;;
41711;SDS011;27399;51.516;13.670;2022-11-14T11:01:32;18.35;;;10.45;;
41711;SDS011;27399;51.516;13.670;2022-11-14T11:04:11;17.63;;;10.05;;
41711;SDS011;27399;51.516;13.670;2022-11-14T11:06:38;17.52;;;10.35;;
41711;SDS011;27399;51.516;13.670;2022-11-14T11:12:21;16.80;;;9.05;;
41711;SDS011;27399;51.516;13.670;2022-11-14T11:17:52;18.45;;;9.80;;
41711;SDS011;27399;51.516;13.670;2022-11-14T11:25:30;16.33;;;9.68;;
41711;SDS011;27399;51.516;13.670;2022-11-14T11:28:16;18.98;;;10.38;;
41711;SDS011;27399;51.516;13.670;2022-11-14T11:30:56;17.10;;;8.93;;
41711;SDS011;27399;51.516;13.670;2022-11-14T11:33:24;15.65;;;9.10;;
41711;SDS011;27399;51.516;13.670;2022-11-14T11:35:52;17.38;;;10.23;;
41711;SDS011;27399;51.516;13.670;2022-11-14T11:38:28;15.43;;;9.32;;
41711;SDS011;27399;51.516;13.670;2022-11-14T11:41:06;17.08;;;10.18;;
41711;SDS011;27399;51.516;13.670;2022-11-14T11:43:41;16.67;;;9.63;;
41711;SDS011;27399;51.516;13.670;2022-11-14T11:46:17;17.30;;;9.27;;
41711;SDS011;27399;51.516;13.670;2022-11-14T11:49:09;15.48;;;8.45;;
41711;SDS011;27399;51.516;13.670;2022-11-14T11:51:42;15.32;;;8.77;;
41711;SDS011;27399;51.516;13.670;2022-11-14T11:54:14;14.27;;;8.48;;
41711;SDS011;27399;51.516;13.670;2022-11-14T11:56:43;15.35;;;8.82;;
41711;SDS011;27399;51.516;13.670;2022-11-14T12:01:46;15.00;;;8.43;;
41711;SDS011;27399;51.516;13.670;2022-11-14T12:04:12;18.10;;;10.02;;
41711;SDS011;27399;51.516;13.670;2022-11-14T12:06:40;15.02;;;9.35;;
41711;SDS011;27399;51.516;13.670;2022-11-14T12:18:48;16.88;;;9.30;;
41711;SDS011;27399;51.516;13.670;2022-11-14T12:27:11;12.25;;;8.10;;
41711;SDS011;27399;51.516;13.670;2022-11-14T12:29:52;18.38;;;9.40;;
41711;SDS011;27399;51.516;13.670;2022-11-14T12:32:30;19.38;;;9.60;;
41711;SDS011;27399;51.516;13.670;2022-11-14T12:35:04;16.00;;;8.00;;
41711;SDS011;27399;51.516;13.670;2022-11-14T12:37:35;16.35;;;9.27;;
41711;SDS011;27399;51.516;13.670;2022-11-14T12:40:17;14.98;;;8.93;;
41711;SDS011;27399;51.516;13.670;2022-11-14T12:42:47;14.13;;;8.70;;
41711;SDS011;27399;51.516;13.670;2022-11-14T12:53:36;14.45;;;9.13;;
41711;SDS011;27399;51.516;13.670;2022-11-14T12:56:06;14.88;;;9.05;;
41711;SDS011;27399;51.516;13.670;2022-11-14T13:04:39;16.45;;;8.85;;
41711;SDS011;27399;51.516;13.670;2022-11-14T13:18:49;15.43;;;9.07;;
41711;SDS011;27399;51.516;13.670;2022-11-14T13:22:15;15.32;;;9.10;;
41711;SDS011;27399;51.516;13.670;2022-11-14T13:25:36;15.35;;;9.05;;
41711;SDS011;27399;51.516;13.670;2022-11-14T13:27:33;17.08;;;9.70;;
41711;SDS011;27399;51.516;13.670;2022-11-14T13:30:01;16.17;;;8.73;;
41711;SDS011;27399;51.516;13.670;2022-11-14T13:35:20;22.88;;;9.00;;
41711;SDS011;27399;51.516;13.670;2022-11-14T13:43:05;13.80;;;8.63;;
41711;SDS011;27399;51.516;13.670;2022-11-14T13:48:52;15.05;;;8.55;;
41711;SDS011;27399;51.516;13.670;2022-11-14T13:51:26;16.75;;;8.55;;
41711;SDS011;27399;51.516;13.670;2022-11-14T13:53:53;14.50;;;8.80;;
41711;SDS011;27399;51.516;13.670;2022-11-14T13:56:36;14.05;;;8.82;;
41711;SDS011;27399;51.516;13.670;2022-11-14T13:59:26;12.73;;;8.35;;
41711;SDS011;27399;51.516;13.670;2022-11-14T14:02:36;12.25;;;7.60;;
41711;SDS011;27399;51.516;13.670;2022-11-14T14:13:24;15.73;;;9.75;;
41711;SDS011;27399;51.516;13.670;2022-11-14T14:16:05;15.05;;;8.68;;
41711;SDS011;27399;51.516;13.670;2022-11-14T14:21:47;13.18;;;8.43;;
41711;SDS011;27399;51.516;13.670;2022-11-14T14:30:14;19.45;;;9.38;;
41711;SDS011;27399;51.516;13.670;2022-11-14T14:32:41;16.65;;;9.35;;
41711;SDS011;27399;51.516;13.670;2022-11-14T14:35:26;16.88;;;10.07;;
41711;SDS011;27399;51.516;13.670;2022-11-14T14:37:54;14.40;;;8.82;;
41711;SDS011;27399;51.516;13.670;2022-11-14T14:40:22;15.07;;;8.93;;
41711;SDS011;27399;51.516;13.670;2022-11-14T14:42:50;15.48;;;8.23;;
41711;SDS011;27399;51.516;13.670;2022-11-14T14:45:18;13.48;;;8.38;;
41711;SDS011;27399;51.516;13.670;2022-11-14T14:47:57;13.82;;;8.52;;
41711;SDS011;27399;51.516;13.670;2022-11-14T14:50:31;20.42;;;10.10;;
41711;SDS011;27399;51.516;13.670;2022-11-14T14:53:05;18.33;;;9.02;;
41711;SDS011;27399;51.516;13.670;2022-11-14T14:55:33;13.32;;;8.13;;
41711;SDS011;27399;51.516;13.670;2022-11-14T14:58:22;21.35;;;9.93;;
41711;SDS011;27399;51.516;13.670;2022-11-14T15:01:12;14.45;;;8.18;;
41711;SDS011;27399;51.516;13.670;2022-11-14T15:03:48;16.15;;;9.90;;
41711;SDS011;27399;51.516;13.670;2022-11-14T15:11:48;17.77;;;9.25;;
41711;SDS011;27399;51.516;13.670;2022-11-14T15:14:19;16.95;;;8.80;;
41711;SDS011;27399;51.516;13.670;2022-11-14T15:16:47;17.88;;;9.63;;
41711;SDS011;27399;51.516;13.670;2022-11-14T15:19:16;17.77;;;8.32;;
41711;SDS011;27399;51.516;13.670;2022-11-14T15:22:04;20.75;;;8.65;;
41711;SDS011;27399;51.516;13.670;2022-11-14T15:27:49;19.60;;;10.68;;
41711;SDS011;27399;51.516;13.670;2022-11-14T15:30:35;24.13;;;11.98;;
41711;SDS011;27399;51.516;13.670;2022-11-14T15:33:02;20.48;;;11.00;;
41711;SDS011;27399;51.516;13.670;2022-11-14T15:35:32;16.90;;;9.98;;
41711;SDS011;27399;51.516;13.670;2022-11-14T15:38:06;15.18;;;9.73;;
41711;SDS011;27399;51.516;13.670;2022-11-14T15:41:07;31.20;;;12.43;;
41711;SDS011;27399;51.516;13.670;2022-11-14T15:43:34;42.03;;;13.02;;
41711;SDS011;27399;51.516;13.670;2022-11-14T15:46:02;25.27;;;11.68;;
41711;SDS011;27399;51.516;13.670;2022-11-14T15:48:28;21.73;;;11.45;;
41711;SDS011;27399;51.516;13.670;2022-11-14T15:50:53;21.70;;;11.32;;
41711;SDS011;27399;51.516;13.670;2022-11-14T15:55:44;18.92;;;10.60;;
41711;SDS011;27399;51.516;13.670;2022-11-14T15:58:10;18.58;;;10.60;;
41711;SDS011;27399;51.516;13.670;2022-11-14T16:00:38;23.83;;;9.75;;
41711;SDS011;27399;51.516;13.670;2022-11-14T16:03:19;21.42;;;10.10;;
41711;SDS011;27399;51.516;13.670;2022-11-14T16:05:46;23.90;;;9.52;;
41711;SDS011;27399;51.516;13.670;2022-11-14T16:08:11;27.35;;;10.23;;
41711;SDS011;27399;51.516;13.670;2022-11-14T16:10:37;17.55;;;9.07;;
41711;SDS011;27399;51.516;13.670;2022-11-14T16:13:04;17.10;;;9.13;;
41711;SDS011;27399;51.516;13.670;2022-11-14T16:15:29;15.90;;;9.43;;
41711;SDS011;27399;51.516;13.670;2022-11-14T16:17:55;18.40;;;9.18;;
41711;SDS011;27399;51.516;13.670;2022-11-14T16:20:25;21.83;;;8.73;;
41711;SDS011;27399;51.516;13.670;2022-11-14T16:22:52;22.63;;;9.50;;
41711;SDS011;27399;51.516;13.670;2022-11-14T16:25:21;24.15;;;9.07;;
41711;SDS011;27399;51.516;13.670;2022-11-14T16:27:48;15.65;;;7.85;;
41711;SDS011;27399;51.516;13.670;2022-11-14T16:30:15;18.75;;;8.40;;
41711;SDS011;27399;51.516;13.670;2022-11-14T16:32:43;14.73;;;7.75;;
41711;SDS011;27399;51.516;13.670;2022-11-14T16:37:42;14.82;;;9.18;;
41711;SDS011;27399;51.516;13.670;2022-11-14T16:40:19;18.35;;;9.60;;